Time;durP1;ratioP1;P1;durP2;ratioP2;P2;SDS_P1;SDS_P2;PMS_P1;PMS_P2;Temp;Humidity;BMP_temperature;BMP_pressure;BME280_temperature;BME280_humidity;BME280_pressure;Samples;Min_cycle;Max_cycle;Signal;HPM_P1;HPM_P2
2022/09/20 00:01:31;;;;;;;7.07;4.03;;;19.90;96.70;;;;;;5054923;28;20555;-78
2022/09/20 00:04:03;;;;;;;6.20;3.78;;;19.80;96.70;;;;;;5062284;28;20052;-76
2022/09/20 00:06:32;;;;;;;5.85;4.05;;;19.80;96.70;;;;;;5041803;28;20102;-76
2022/09/20 00:09:01;;;;;;;8.10;3.70;;;19.60;96.70;;;;;;5047982;28;20492;-76
2022/09/20 00:11:32;;;;;;;7.28;3.67;;;19.60;96.70;;;;;;5070242;28;20090;-76
2022/09/20 00:14:01;;;;;;;9.13;4.13;;;19.50;96.70;;;;;;5059325;28;20045;-76
2022/09/20 00:16:31;;;;;;;6.75;3.42;;;19.50;96.70;;;;;;5043460;28;21055;-76
2022/09/20 00:19:05;;;;;;;6.57;3.83;;;19.60;96.70;;;;;;5047978;28;20056;-76
2022/09/20 00:21:35;;;;;;;7.38;3.85;;;19.60;96.70;;;;;;5045634;28;20567;-76
2022/09/20 00:24:03;;;;;;;6.32;4.00;;;19.50;96.70;;;;;;5067898;28;20121;-76
2022/09/20 00:26:30;;;;;;;7.38;3.80;;;19.50;96.70;;;;;;5063348;28;20450;-76
2022/09/20 00:28:59;;;;;;;6.65;3.55;;;19.40;96.70;;;;;;5034798;28;20050;-76
2022/09/20 00:31:27;;;;;;;7.35;4.10;;;19.40;96.70;;;;;;5031321;28;20146;-76
2022/09/20 00:36:44;;;;;;;7.70;3.20;;;19.30;96.70;;;;;;5055047;28;20513;-77
2022/09/20 00:39:12;;;;;;;5.90;3.63;;;19.40;96.70;;;;;;5067106;28;20044;-76
2022/09/20 00:41:40;;;;;;;5.85;3.45;;;19.40;96.70;;;;;;5072785;28;20751;-76
2022/09/20 00:44:44;;;;;;;5.68;2.70;;;19.40;96.70;;;;;;5067706;28;20055;-77
2022/09/20 00:47:18;;;;;;;4.57;2.33;;;19.40;96.70;;;;;;5065171;28;20049;-76
2022/09/20 00:49:47;;;;;;;5.80;2.40;;;19.40;96.70;;;;;;5025546;28;20044;-77
2022/09/20 00:52:17;;;;;;;3.70;2.28;;;19.50;96.70;;;;;;5048971;28;20069;-76
2022/09/20 00:54:45;;;;;;;4.85;2.30;;;19.50;96.70;;;;;;5061899;28;20051;-77
2022/09/20 00:57:12;;;;;;;6.22;2.08;;;19.50;96.70;;;;;;5039149;28;20040;-77
2022/09/20 00:59:43;;;;;;;4.43;1.80;;;19.40;96.70;;;;;;5047353;28;20174;-77
2022/09/20 01:02:15;;;;;;;3.78;1.90;;;19.30;96.70;;;;;;5064138;28;20104;-76
2022/09/20 01:04:45;;;;;;;5.10;2.10;;;19.30;96.70;;;;;;5065281;28;20556;-76
2022/09/20 01:07:18;;;;;;;3.47;1.98;;;19.30;96.70;;;;;;5048656;28;20041;-77
2022/09/20 01:09:46;;;;;;;7.18;2.08;;;19.30;96.70;;;;;;5050882;28;20117;-75
2022/09/20 01:12:18;;;;;;;4.32;2.00;;;19.20;96.70;;;;;;5066621;28;20109;-76
2022/09/20 01:14:47;;;;;;;3.75;1.80;;;19.20;96.70;;;;;;5058417;28;20094;-76
2022/09/20 01:17:16;;;;;;;3.13;1.55;;;19.10;96.70;;;;;;5038503;28;20090;-76
2022/09/20 01:19:55;;;;;;;3.83;2.30;;;19.00;96.70;;;;;;5057410;28;20083;-76
2022/09/20 01:22:32;;;;;;;5.70;1.88;;;19.00;96.70;;;;;;5056087;28;20603;-76
2022/09/20 01:25:08;;;;;;;3.25;1.77;;;19.00;96.70;;;;;;5031448;28;20056;-76
2022/09/20 01:27:41;;;;;;;;;;;19.00;96.70;;;;;;5061020;28;20236;-76
2022/09/20 01:30:13;;;;;;;5.43;1.88;;;19.00;96.70;;;;;;5052261;28;20028;-76
2022/09/20 01:32:51;;;;;;;4.03;1.50;;;19.00;96.70;;;;;;5049334;28;20052;-76
2022/09/20 01:35:20;;;;;;;4.90;1.73;;;19.00;96.70;;;;;;5062324;28;20052;-77
2022/09/20 01:38:02;;;;;;;2.72;1.60;;;18.90;96.70;;;;;;5046219;28;20046;-76
2022/09/20 01:40:38;;;;;;;2.22;1.40;;;18.90;96.70;;;;;;5044217;28;20052;-76
2022/09/20 01:43:17;;;;;;;4.53;1.55;;;18.90;96.70;;;;;;5060592;28;20512;-76
2022/09/20 01:45:47;;;;;;;2.97;1.50;;;18.90;96.70;;;;;;5071232;28;20048;-78
2022/09/20 01:48:26;;;;;;;3.10;1.40;;;18.90;96.70;;;;;;5068774;28;20071;-76
2022/09/20 01:51:25;;;;;;;3.47;1.30;;;18.90;96.70;;;;;;5056225;28;20052;-76
2022/09/20 01:54:22;;;;;;;2.33;1.45;;;18.70;96.70;;;;;;5047601;28;20130;-76
2022/09/20 01:57:18;;;;;;;3.05;1.27;;;18.60;96.70;;;;;;5040926;28;20041;-76
2022/09/20 02:00:07;;;;;;;3.47;1.60;;;18.70;96.70;;;;;;5071041;28;20043;-76
2022/09/20 02:03:18;;;;;;;3.15;1.42;;;18.60;96.70;;;;;;5069180;28;20136;-76
2022/09/20 02:06:14;;;;;;;5.88;1.58;;;18.60;96.70;;;;;;5020555;28;20048;-77
2022/09/20 02:09:11;;;;;;;4.55;1.33;;;18.60;96.70;;;;;;5026191;28;20057;-76
2022/09/20 02:11:49;;;;;;;4.70;1.67;;;18.50;96.70;;;;;;5066886;28;20044;-78
2022/09/20 02:14:33;;;;;;;2.90;1.50;;;18.40;96.70;;;;;;5052368;28;20048;-76
2022/09/20 02:17:12;;;;;;;4.32;1.25;;;18.40;96.70;;;;;;5039318;28;20056;-76
2022/09/20 02:20:12;;;;;;;4.18;1.50;;;18.40;96.70;;;;;;5054692;28;20131;-76
2022/09/20 02:23:04;;;;;;;3.15;1.50;;;18.40;96.70;;;;;;5042583;28;20053;-76
2022/09/20 02:26:05;;;;;;;3.70;1.48;;;18.30;96.70;;;;;;5044170;28;20068;-76
2022/09/20 02:28:49;;;;;;;3.75;1.48;;;18.30;96.70;;;;;;4996581;28;20111;-76
2022/09/20 02:31:27;;;;;;;5.53;1.80;;;18.20;96.70;;;;;;5038241;28;20045;-76
2022/09/20 02:34:24;;;;;;;4.47;1.92;;;18.20;96.70;;;;;;5034710;28;20045;-75
2022/09/20 02:37:03;;;;;;;2.97;1.70;;;18.20;96.70;;;;;;5036261;28;20084;-75
2022/09/20 02:39:35;;;;;;;4.43;1.52;;;18.10;96.70;;;;;;5062045;28;20412;-76
2022/09/20 02:42:12;;;;;;;3.03;1.40;;;17.90;96.70;;;;;;5032191;28;20205;-76
2022/09/20 02:44:53;;;;;;;2.92;1.40;;;17.90;96.70;;;;;;5054280;28;20494;-76
2022/09/20 02:47:30;;;;;;;4.32;1.75;;;17.90;96.70;;;;;;5043643;28;20509;-76
2022/09/20 02:50:20;;;;;;;3.60;1.80;;;17.90;96.70;;;;;;5045002;28;20075;-76
2022/09/20 02:53:03;;;;;;;4.60;1.60;;;17.90;96.70;;;;;;5034621;28;20053;-76
2022/09/20 02:55:39;;;;;;;3.85;1.85;;;17.80;96.70;;;;;;5039601;28;20641;-76
2022/09/20 02:58:11;;;;;;;;;;;17.70;96.70;;;;;;5041654;28;20126;-76
2022/09/20 03:00:47;;;;;;;2.45;1.70;;;17.60;96.70;;;;;;5046177;28;19931;-76
2022/09/20 03:03:30;;;;;;;3.78;1.60;;;17.60;96.70;;;;;;5033695;28;20051;-77
2022/09/20 03:06:04;;;;;;;4.25;1.70;;;17.60;96.70;;;;;;5049786;28;20047;-77
2022/09/20 03:08:39;;;;;;;3.90;1.40;;;17.60;96.70;;;;;;5056416;28;20063;-76
2022/09/20 03:11:17;;;;;;;3.17;1.50;;;17.60;96.70;;;;;;5069033;28;20037;-76
2022/09/20 03:14:01;;;;;;;4.85;1.58;;;17.50;96.70;;;;;;5064876;28;20047;-76
2022/09/20 03:16:42;;;;;;;4.05;1.63;;;17.50;96.70;;;;;;5056021;28;20079;-76
2022/09/20 03:19:32;;;;;;;3.70;1.20;;;17.50;96.70;;;;;;5036177;28;20045;-77
2022/09/20 03:22:16;;;;;;;4.77;1.77;;;17.50;96.70;;;;;;5044188;28;20052;-76
2022/09/20 03:24:56;;;;;;;2.42;1.00;;;17.40;96.70;;;;;;5066248;28;20299;-76
2022/09/20 03:27:32;;;;;;;2.92;1.30;;;17.40;96.70;;;;;;5040693;28;20517;-76
2022/09/20 03:30:18;;;;;;;4.47;1.60;;;17.40;96.70;;;;;;5058763;28;20090;-76
2022/09/20 03:32:57;;;;;;;3.13;1.30;;;17.30;96.70;;;;;;5046948;28;20340;-76
2022/09/20 03:35:45;;;;;;;3.10;1.60;;;17.40;96.70;;;;;;5028521;28;20052;-76
2022/09/20 03:38:41;;;;;;;3.35;1.13;;;17.40;96.70;;;;;;5041845;28;20049;-76
2022/09/20 03:41:30;;;;;;;2.13;1.30;;;17.40;96.70;;;;;;5051436;28;20615;-76
2022/09/20 03:44:13;;;;;;;2.72;1.35;;;17.30;96.70;;;;;;5064473;28;20052;-76
2022/09/20 03:46:44;;;;;;;3.20;1.10;;;17.30;96.70;;;;;;5038661;28;20044;-76
2022/09/20 03:49:37;;;;;;;3.35;1.52;;;17.20;96.70;;;;;;5045610;28;20048;-76
2022/09/20 03:52:18;;;;;;;3.92;1.45;;;17.20;96.70;;;;;;5040713;28;20502;-76
2022/09/20 03:55:07;;;;;;;2.35;1.58;;;17.20;96.70;;;;;;5054693;28;20963;-76
2022/09/20 03:57:50;;;;;;;5.35;1.42;;;17.10;96.70;;;;;;5055608;28;20051;-75
2022/09/20 04:00:37;;;;;;;3.60;1.50;;;17.10;96.70;;;;;;5046429;28;20071;-77
2022/09/20 04:03:27;;;;;;;2.90;1.30;;;17.10;96.70;;;;;;5060407;28;20720;-76
2022/09/20 04:06:15;;;;;;;3.45;1.77;;;17.10;96.70;;;;;;5038100;28;20076;-76
2022/09/20 04:09:00;;;;;;;3.53;1.25;;;17.10;96.70;;;;;;5059659;28;20065;-76
2022/09/20 04:11:36;;;;;;;2.83;1.35;;;17.00;96.70;;;;;;5045144;28;20052;-76
2022/09/20 04:14:16;;;;;;;4.07;1.40;;;17.00;96.70;;;;;;5050159;28;20409;-76
2022/09/20 04:16:54;;;;;;;2.63;1.13;;;16.90;96.70;;;;;;5042930;28;20471;-76
2022/09/20 04:19:27;;;;;;;5.80;1.30;;;16.80;96.70;;;;;;5049651;28;20060;-76
2022/09/20 04:22:01;;;;;;;6.72;1.80;;;16.80;96.70;;;;;;5049100;28;20045;-76
2022/09/20 04:24:40;;;;;;;3.45;1.50;;;16.70;96.70;;;;;;5044167;28;20033;-76
2022/09/20 04:27:15;;;;;;;1.77;1.20;;;16.70;96.70;;;;;;5047705;28;20106;-77
2022/09/20 04:29:51;;;;;;;3.53;1.30;;;16.70;96.70;;;;;;5062351;28;20047;-77
2022/09/20 04:32:27;;;;;;;3.65;1.88;;;16.70;96.70;;;;;;5049072;28;20051;-77
2022/09/20 04:37:52;;;;;;;4.55;1.52;;;16.60;96.70;;;;;;5060710;28;20049;-77
2022/09/20 04:40:34;;;;;;;3.75;1.65;;;16.60;96.70;;;;;;5061286;28;20040;-77
2022/09/20 04:43:33;;;;;;;3.13;1.65;;;16.50;96.70;;;;;;5036844;28;20049;-76
2022/09/20 04:46:54;;;;;;;3.75;1.52;;;16.50;96.70;;;;;;5065143;28;20053;-77
2022/09/20 04:50:09;;;;;;;2.83;1.65;;;16.60;96.70;;;;;;4948293;28;20053;-77
2022/09/20 04:53:13;;;;;;;3.90;1.75;;;16.50;96.70;;;;;;4998827;28;20547;-77
2022/09/20 04:55:57;;;;;;;4.65;1.70;;;16.60;96.70;;;;;;5067740;28;20580;-76
2022/09/20 04:58:39;;;;;;;4.40;2.20;;;16.40;96.70;;;;;;5057109;28;20064;-77
2022/09/20 05:01:43;;;;;;;4.55;1.88;;;16.30;96.70;;;;;;5067424;28;20466;-76
2022/09/20 05:04:44;;;;;;;2.92;1.33;;;16.30;96.70;;;;;;5059748;28;20079;-76
2022/09/20 05:07:53;;;;;;;4.78;1.90;;;16.40;96.70;;;;;;5054085;28;20044;-77
2022/09/20 05:10:49;;;;;;;5.07;1.90;;;16.30;96.70;;;;;;5063355;28;20039;-77
2022/09/20 05:13:30;;;;;;;4.38;2.35;;;16.30;96.70;;;;;;5039618;28;20052;-77
2022/09/20 05:16:05;;;;;;;7.05;2.20;;;16.30;96.70;;;;;;5036817;28;20076;-76
2022/09/20 05:19:04;;;;;;;4.53;2.20;;;16.20;96.70;;;;;;5061707;28;20064;-78
2022/09/20 05:21:52;;;;;;;4.13;1.75;;;16.20;96.70;;;;;;5036873;28;20076;-76
2022/09/20 05:25:01;;;;;;;3.22;1.60;;;16.20;96.70;;;;;;5047785;28;20052;-78
2022/09/20 05:27:40;;;;;;;5.97;1.85;;;16.20;96.70;;;;;;5056976;28;20049;-78
2022/09/20 05:30:19;;;;;;;5.90;1.88;;;16.20;96.70;;;;;;5044887;28;20080;-77
2022/09/20 05:33:05;;;;;;;6.03;2.25;;;16.20;96.70;;;;;;5061242;28;20040;-77
2022/09/20 05:35:42;;;;;;;3.47;1.88;;;16.30;96.70;;;;;;5058388;28;20043;-76
2022/09/20 05:38:18;;;;;;;3.92;1.92;;;16.30;96.70;;;;;;5042964;28;20067;-76
2022/09/20 05:40:58;;;;;;;;;;;16.40;96.70;;;;;;5065215;28;20556;-77
2022/09/20 05:43:31;;;;;;;5.60;2.30;;;16.40;96.70;;;;;;5067769;28;20005;-77
2022/09/20 05:46:13;;;;;;;6.45;1.95;;;16.50;96.70;;;;;;5068320;28;20066;-78
2022/09/20 05:48:55;;;;;;;5.50;2.35;;;16.50;96.70;;;;;;5059637;28;20497;-77
2022/09/20 05:51:41;;;;;;;4.55;2.10;;;16.50;96.70;;;;;;5020373;28;20049;-78
2022/09/20 05:54:34;;;;;;;4.93;2.15;;;16.50;96.70;;;;;;5037572;28;20049;-77
2022/09/20 05:57:18;;;;;;;5.20;2.25;;;16.60;96.70;;;;;;5039514;28;20055;-77
2022/09/20 05:59:59;;;;;;;7.00;2.67;;;16.70;96.70;;;;;;5049456;28;20051;-77
2022/09/20 06:02:46;;;;;;;9.60;3.03;;;16.80;96.70;;;;;;5038812;28;20177;-78
2022/09/20 06:05:28;;;;;;;8.73;3.03;;;16.80;96.70;;;;;;5051501;28;20058;-78
2022/09/20 06:08:15;;;;;;;8.27;3.63;;;16.90;96.70;;;;;;5049448;28;20594;-76
2022/09/20 06:11:02;;;;;;;8.40;3.75;;;17.10;96.70;;;;;;5057959;28;20052;-78
2022/09/20 06:14:02;;;;;;;8.15;3.95;;;17.10;96.70;;;;;;5060879;28;20120;-78
2022/09/20 06:16:41;;;;;;;11.57;5.32;;;17.10;96.70;;;;;;5040086;28;20036;-77
2022/09/20 06:19:19;;;;;;;6.88;4.55;;;17.20;96.70;;;;;;5037318;28;20561;-77
2022/09/20 06:21:53;;;;;;;9.90;6.03;;;17.30;96.70;;;;;;5043405;28;20045;-77
2022/09/20 06:24:34;;;;;;;12.43;6.72;;;17.40;96.70;;;;;;5041449;28;20143;-76
2022/09/20 06:27:07;;;;;;;10.85;6.55;;;17.50;96.70;;;;;;5043834;28;20126;-76
2022/09/20 06:29:39;;;;;;;14.68;8.25;;;17.60;96.70;;;;;;5056234;28;20049;-76
2022/09/20 06:32:08;;;;;;;13.75;8.40;;;17.70;96.70;;;;;;5043300;28;20052;-77
2022/09/20 06:34:36;;;;;;;16.85;8.80;;;17.70;96.70;;;;;;5029221;28;20060;-77
2022/09/20 06:43:04;;;;;;;12.43;8.48;;;17.90;96.70;;;;;;5067003;28;20040;-82
2022/09/20 06:45:33;;;;;;;12.95;6.95;;;17.90;96.70;;;;;;5043638;28;20158;-81
2022/09/20 06:48:02;;;;;;;13.30;7.10;;;18.00;96.70;;;;;;5064670;28;20643;-80
2022/09/20 06:50:35;;;;;;;10.48;6.28;;;18.10;96.70;;;;;;5062547;28;20127;-82
2022/09/20 06:53:05;;;;;;;12.75;6.45;;;18.10;96.70;;;;;;5048602;28;20048;-83
2022/09/20 06:55:37;;;;;;;9.52;5.65;;;18.20;96.70;;;;;;5066950;28;20040;-82
2022/09/20 06:58:08;;;;;;;8.65;4.32;;;18.30;96.70;;;;;;5041857;28;20576;-83
2022/09/20 07:00:38;;;;;;;10.48;4.70;;;18.40;96.70;;;;;;5049649;28;20059;-80
2022/09/20 07:03:07;;;;;;;8.35;4.75;;;18.40;96.70;;;;;;5041946;28;20052;-77
2022/09/20 07:05:36;;;;;;;9.38;4.20;;;18.50;96.70;;;;;;5060556;28;20064;-83
2022/09/20 07:08:07;;;;;;;7.38;4.35;;;18.50;96.70;;;;;;5050456;28;20048;-83
2022/09/20 07:10:36;;;;;;;6.40;4.20;;;18.60;96.70;;;;;;5041829;28;20033;-82
2022/09/20 07:13:05;;;;;;;6.57;3.80;;;18.60;96.70;;;;;;5060476;28;20036;-83
2022/09/20 07:15:34;;;;;;;7.03;3.70;;;18.70;96.70;;;;;;5049743;28;20053;-82
2022/09/20 07:18:02;;;;;;;6.45;3.83;;;18.80;96.70;;;;;;5041270;28;20446;-78
2022/09/20 07:20:31;;;;;;;7.30;3.42;;;18.90;96.70;;;;;;5044382;28;20049;-84
2022/09/20 07:22:59;;;;;;;6.15;3.45;;;18.90;96.70;;;;;;5051617;28;20048;-86
2022/09/20 07:25:30;;;;;;;7.45;3.50;;;19.00;96.70;;;;;;5032660;28;20305;-82
2022/09/20 07:27:58;;;;;;;7.20;3.88;;;19.00;96.70;;;;;;5033331;28;20109;-85
2022/09/20 07:30:27;;;;;;;9.15;4.45;;;19.00;96.70;;;;;;5068468;28;20045;-84
2022/09/20 07:32:55;;;;;;;9.15;4.10;;;19.10;96.70;;;;;;5067391;28;20044;-85
2022/09/20 07:35:24;;;;;;;10.75;5.57;;;19.20;96.70;;;;;;5058130;28;20143;-85
2022/09/20 07:37:56;;;;;;;9.77;5.10;;;19.20;96.70;;;;;;5054881;28;20071;-84
2022/09/20 07:40:26;;;;;;;9.25;5.05;;;19.30;96.70;;;;;;5044386;28;20194;-85
2022/09/20 07:42:57;;;;;;;5.65;3.92;;;19.30;96.70;;;;;;5052725;28;20049;-83
2022/09/20 07:45:26;;;;;;;7.63;3.58;;;19.40;96.70;;;;;;5043903;28;20044;-83
2022/09/20 07:47:56;;;;;;;7.38;3.45;;;19.40;96.70;;;;;;5051374;28;20098;-84
2022/09/20 07:50:24;;;;;;;4.65;2.55;;;19.50;96.70;;;;;;5056115;28;20125;-83
2022/09/20 07:52:56;;;;;;;3.63;2.10;;;19.60;96.70;;;;;;5048830;28;20084;-84
2022/09/20 07:55:24;;;;;;;4.35;2.70;;;19.60;96.70;;;;;;5048906;28;20040;-84
2022/09/20 07:57:54;;;;;;;4.72;2.03;;;19.80;96.70;;;;;;5053392;28;20506;-84
2022/09/20 08:00:24;;;;;;;3.10;1.67;;;19.80;96.70;;;;;;5052909;28;20802;-84
2022/09/20 08:03:00;;;;;;;3.17;1.20;;;19.80;96.70;;;;;;5053221;28;20668;-84
2022/09/20 08:05:29;;;;;;;2.33;1.27;;;19.90;96.70;;;;;;5047936;28;20037;-84
2022/09/20 08:07:59;;;;;;;2.35;1.08;;;20.00;96.70;;;;;;5068452;28;20071;-84
2022/09/20 08:10:27;;;;;;;3.13;0.98;;;20.00;96.70;;;;;;5042506;28;20444;-84
2022/09/20 08:12:58;;;;;;;3.88;0.70;;;20.10;96.70;;;;;;5044356;28;20824;-84
2022/09/20 08:15:48;;;;;;;1.38;0.82;;;20.10;96.70;;;;;;5050133;28;20102;-82
2022/09/20 08:18:16;;;;;;;2.70;1.23;;;20.30;96.70;;;;;;5067190;28;20044;-79
2022/09/20 08:20:44;;;;;;;2.25;1.05;;;20.40;96.70;;;;;;5046465;28;20124;-81
2022/09/20 08:23:12;;;;;;;1.83;1.02;;;20.50;96.70;;;;;;5062480;28;20123;-84
2022/09/20 08:25:50;;;;;;;3.20;1.00;;;20.50;96.70;;;;;;5053070;28;20074;-84
2022/09/20 08:28:19;;;;;;;2.05;1.20;;;20.50;96.70;;;;;;5071214;28;20071;-82
2022/09/20 08:30:48;;;;;;;3.63;1.70;;;20.50;96.70;;;;;;5069140;28;20702;-81
2022/09/20 08:33:17;;;;;;;4.57;1.15;;;20.60;96.70;;;;;;5065429;28;20048;-82
2022/09/20 08:35:48;;;;;;;2.95;1.10;;;20.70;96.70;;;;;;5030057;28;20049;-82
2022/09/20 08:38:18;;;;;;;2.75;1.30;;;20.80;96.70;;;;;;5067894;28;20055;-83
2022/09/20 08:41:11;;;;;;;4.20;1.35;;;20.80;96.70;;;;;;5050874;28;20508;-84
2022/09/20 08:43:43;;;;;;;3.33;1.40;;;20.90;96.70;;;;;;5030072;28;20048;-82
2022/09/20 08:46:16;;;;;;;3.00;1.13;;;21.10;96.70;;;;;;5049074;28;20052;-85
2022/09/20 08:48:51;;;;;;;2.47;1.40;;;21.10;96.70;;;;;;5053260;28;20102;-87
2022/09/20 08:51:20;;;;;;;2.70;1.40;;;21.30;96.70;;;;;;5049999;28;20532;-85
2022/09/20 08:53:53;;;;;;;4.28;1.58;;;21.40;96.70;;;;;;5071262;28;20040;-87
2022/09/20 08:56:22;;;;;;;3.38;1.83;;;21.40;96.70;;;;;;5036286;28;20053;-87
2022/09/20 08:58:50;;;;;;;4.10;1.48;;;21.50;96.70;;;;;;5070755;28;20043;-87
2022/09/20 09:01:37;;;;;;;2.25;1.40;;;21.60;96.70;;;;;;5060679;28;20571;-87
2022/09/20 09:04:13;;;;;;;2.90;1.50;;;21.60;96.70;;;;;;5049089;28;20059;-78
2022/09/20 09:06:42;;;;;;;2.70;1.40;;;21.60;96.70;;;;;;5027682;28;20147;-81
2022/09/20 09:09:17;;;;;;;3.83;1.40;;;21.70;96.70;;;;;;5039675;28;20071;-80
2022/09/20 09:11:48;;;;;;;3.63;1.25;;;21.70;96.70;;;;;;5044261;28;20044;-82
2022/09/20 09:17:13;;;;;;;2.78;1.30;;;21.90;96.70;;;;;;5067101;28;20083;-80
2022/09/20 09:19:47;;;;;;;3.92;1.10;;;21.90;96.70;;;;;;5060829;28;20068;-83
2022/09/20 09:22:28;;;;;;;5.72;1.02;;;21.90;96.70;;;;;;5030311;28;20517;-80
2022/09/20 09:25:33;;;;;;;2.58;1.08;;;21.90;96.70;;;;;;5048484;28;20399;-79
2022/09/20 09:28:11;;;;;;;2.08;0.77;;;22.00;96.70;;;;;;4975989;28;20078;-79
2022/09/20 09:30:42;;;;;;;1.70;0.60;;;22.10;96.70;;;;;;4979780;28;20050;-81
2022/09/20 09:33:24;;;;;;;4.05;1.30;;;22.20;96.70;;;;;;4973181;28;20047;-81
2022/09/20 09:35:55;;;;;;;4.53;1.00;;;22.20;96.70;;;;;;4967706;28;20575;-79
2022/09/20 09:38:25;;;;;;;2.42;1.00;;;22.40;96.70;;;;;;4982700;28;20054;-78
2022/09/20 09:40:55;;;;;;;1.75;0.82;;;22.70;96.70;;;;;;4967300;28;20054;-77
2022/09/20 09:43:27;;;;;;;2.00;1.00;;;22.70;96.70;;;;;;4987434;28;20058;-78
2022/09/20 09:46:15;;;;;;;3.20;1.30;;;22.90;96.70;;;;;;4981059;28;20059;-77
2022/09/20 09:48:48;;;;;;;2.30;1.00;;;23.10;96.70;;;;;;4976169;28;20093;-80
2022/09/20 09:51:19;;;;;;;1.75;0.70;;;23.30;96.70;;;;;;4962797;28;20050;-81
2022/09/20 09:53:48;;;;;;;2.75;1.10;;;23.40;96.70;;;;;;4985538;28;20049;-79
2022/09/20 09:56:33;;;;;;;3.58;0.93;;;23.40;96.70;;;;;;4966164;28;20038;-79
2022/09/20 09:59:22;;;;;;;2.95;1.08;;;23.40;96.70;;;;;;5014881;28;20498;-78
2022/09/20 10:01:58;;;;;;;3.35;1.00;;;23.70;96.70;;;;;;5041568;28;20380;-79
2022/09/20 10:04:37;;;;;;;3.17;0.98;;;23.80;96.70;;;;;;5044547;28;20052;-76
2022/09/20 10:07:13;;;;;;;4.30;1.40;;;23.90;96.70;;;;;;5044137;28;20044;-76
2022/09/20 10:09:59;;;;;;;2.10;1.00;;;24.00;96.70;;;;;;5040380;28;20085;-76
2022/09/20 10:12:50;;;;;;;2.67;0.70;;;24.00;96.70;;;;;;5023134;28;20048;-79
2022/09/20 10:15:28;;;;;;;1.15;0.70;;;24.20;96.70;;;;;;5069465;28;20048;-76
2022/09/20 10:18:19;;;;;;;2.78;0.90;;;24.40;96.70;;;;;;5059780;28;20433;-80
2022/09/20 10:21:06;;;;;;;3.60;0.95;;;24.60;96.70;;;;;;5052730;28;20048;-78
2022/09/20 10:23:46;;;;;;;2.50;0.85;;;24.60;96.70;;;;;;5044079;28;20068;-76
2022/09/20 10:26:55;;;;;;;2.00;0.82;;;24.70;96.70;;;;;;5021401;28;20041;-78
2022/09/20 10:29:32;;;;;;;1.35;0.68;;;24.90;96.70;;;;;;5067989;28;20047;-78
2022/09/20 10:32:17;;;;;;;2.08;0.80;;;25.00;96.70;;;;;;5065284;28;20456;-78
2022/09/20 10:35:05;;;;;;;2.13;0.60;;;24.80;96.70;;;;;;5033487;28;20497;-79
2022/09/20 10:37:50;;;;;;;1.33;0.70;;;24.70;96.70;;;;;;5057993;28;20125;-82
2022/09/20 10:43:13;;;;;;;1.23;0.70;;;25.00;96.70;;;;;;5039819;28;20560;-81
2022/09/20 10:43:34;;;;;;;0.93;0.65;;;25.10;96.70;;;;;;5054847;28;20725;-79
2022/09/20 10:46:15;;;;;;;1.25;0.73;;;25.30;96.70;;;;;;5062516;28;20055;-77
2022/09/20 10:49:02;;;;;;;;;;;25.30;96.70;;;;;;5035588;28;20040;-78
2022/09/20 10:51:43;;;;;;;1.58;0.70;;;25.40;96.60;;;;;;5062482;28;19924;-79
2022/09/20 10:54:28;;;;;;;2.15;0.70;;;25.30;96.70;;;;;;5050123;28;20068;-79
2022/09/20 10:57:24;;;;;;;1.40;0.73;;;25.20;95.90;;;;;;5043485;28;20041;-78
2022/09/20 11:00:02;;;;;;;1.23;0.60;;;25.30;96.30;;;;;;5046660;28;20044;-78
2022/09/20 11:02:43;;;;;;;1.15;0.70;;;25.50;96.30;;;;;;5047109;28;20064;-77
2022/09/20 11:05:39;;;;;;;1.70;0.85;;;25.60;96.70;;;;;;5025633;28;20044;-79
2022/09/20 11:08:12;;;;;;;1.15;0.63;;;25.40;96.70;;;;;;5066679;28;20059;-80
2022/09/20 11:10:47;;;;;;;1.88;1.10;;;25.60;96.70;;;;;;5046570;28;20044;-78
2022/09/20 11:13:24;;;;;;;0.93;0.73;;;25.80;95.60;;;;;;5061799;28;20049;-81
2022/09/20 11:16:01;;;;;;;1.85;1.00;;;26.00;96.60;;;;;;5065599;28;20045;-80
2022/09/20 11:18:37;;;;;;;3.15;1.02;;;26.10;95.40;;;;;;5063188;28;20061;-81
2022/09/20 11:21:16;;;;;;;1.90;0.98;;;26.30;94.30;;;;;;5025529;28;20174;-79
2022/09/20 11:23:51;;;;;;;2.85;0.60;;;26.30;94.10;;;;;;5040490;28;20058;-79
2022/09/20 11:26:30;;;;;;;1.58;0.80;;;26.30;94.50;;;;;;5060794;28;20044;-79
2022/09/20 11:29:03;;;;;;;2.45;1.00;;;26.50;95.10;;;;;;5039837;28;20052;-80
2022/09/20 11:31:37;;;;;;;1.17;0.63;;;26.40;94.10;;;;;;5065797;28;20041;-79
2022/09/20 11:34:14;;;;;;;2.50;0.57;;;26.60;91.90;;;;;;5043147;28;20048;-79
2022/09/20 11:36:52;;;;;;;1.55;0.60;;;26.70;92.40;;;;;;5051731;28;20045;-78
2022/09/20 11:39:28;;;;;;;2.70;1.00;;;26.40;93.00;;;;;;5020599;28;20045;-78
2022/09/20 11:42:00;;;;;;;4.15;1.05;;;26.50;94.30;;;;;;5042858;28;20104;-79
2022/09/20 11:44:33;;;;;;;2.15;0.95;;;26.70;93.70;;;;;;5039591;28;20056;-80
2022/09/20 11:47:13;;;;;;;0.93;0.68;;;26.80;93.90;;;;;;5053960;28;20386;-81
2022/09/20 11:50:47;;;;;;;2.78;1.10;;;26.70;94.00;;;;;;5047966;28;20086;-80
2022/09/20 11:53:34;;;;;;;0.90;0.60;;;26.90;93.80;;;;;;5036131;28;20063;-80
2022/09/20 11:56:13;;;;;;;3.22;1.30;;;26.90;92.50;;;;;;5007738;28;20552;-82
2022/09/20 11:58:48;;;;;;;1.23;0.88;;;26.90;93.20;;;;;;5047289;28;20045;-79
2022/09/20 12:01:39;;;;;;;2.03;1.10;;;27.30;91.90;;;;;;5064065;28;20040;-80
2022/09/20 12:04:28;;;;;;;1.88;0.70;;;27.40;90.70;;;;;;5040685;28;20049;-79
2022/09/20 12:07:18;;;;;;;2.97;0.95;;;27.20;90.60;;;;;;5041026;28;20043;-80
2022/09/20 12:09:54;;;;;;;1.30;0.60;;;27.30;90.50;;;;;;5039646;28;20074;-80
2022/09/20 12:12:34;;;;;;;1.13;0.60;;;27.50;88.60;;;;;;5059131;28;20045;-79
2022/09/20 12:15:06;;;;;;;1.77;0.60;;;27.50;88.40;;;;;;5039372;28;20040;-80
2022/09/20 12:18:18;;;;;;;1.23;0.43;;;27.40;88.90;;;;;;5060655;28;20098;-80
2022/09/20 12:21:15;;;;;;;1.27;0.70;;;27.40;88.10;;;;;;4965912;28;20058;-80
2022/09/20 12:24:15;;;;;;;1.33;0.70;;;27.40;87.40;;;;;;4989575;28;20189;-80
2022/09/20 12:26:47;;;;;;;1.00;0.70;;;27.70;87.80;;;;;;5017833;28;20140;-79
2022/09/20 12:29:48;;;;;;;1.85;0.70;;;27.70;88.30;;;;;;5011281;28;20100;-81
2022/09/20 12:32:53;;;;;;;1.92;0.95;;;27.50;88.00;;;;;;5017595;28;20045;-81
2022/09/20 12:36:16;;;;;;;1.58;0.50;;;27.60;87.80;;;;;;5019280;28;20080;-81
2022/09/20 12:38:59;;;;;;;1.17;0.65;;;27.90;86.10;;;;;;5022768;28;20132;-81
2022/09/20 12:41:43;;;;;;;2.65;0.70;;;28.10;87.50;;;;;;5019033;28;20050;-80
2022/09/20 12:44:28;;;;;;;1.20;0.70;;;28.20;86.20;;;;;;5020443;28;20041;-80
2022/09/20 12:46:59;;;;;;;1.08;0.68;;;28.00;87.40;;;;;;5028364;28;20537;-81
2022/09/20 12:52:49;;;;;;;1.80;0.68;;;28.20;85.30;;;;;;5036233;28;20080;-79
2022/09/20 12:55:33;;;;;;;0.98;0.45;;;28.30;83.60;;;;;;5021283;28;20115;-79
2022/09/20 12:58:05;;;;;;;1.45;0.80;;;28.40;84.10;;;;;;5037372;28;20041;-81
2022/09/20 13:00:38;;;;;;;1.75;0.50;;;28.50;84.00;;;;;;5033696;28;20049;-80
2022/09/20 13:03:27;;;;;;;1.00;0.50;;;28.50;83.10;;;;;;5025903;28;20128;-81
2022/09/20 13:06:23;;;;;;;0.90;0.60;;;28.50;83.90;;;;;;5020036;28;20053;-81
2022/09/20 13:09:00;;;;;;;1.60;0.60;;;28.60;82.90;;;;;;5027119;28;20569;-81
2022/09/20 13:11:33;;;;;;;1.73;0.50;;;28.60;80.70;;;;;;5032072;28;20041;-80
2022/09/20 13:14:08;;;;;;;2.92;0.60;;;28.70;80.40;;;;;;5024265;28;20054;-81
2022/09/20 13:16:46;;;;;;;1.23;0.63;;;28.60;81.10;;;;;;5035562;28;20067;-81
2022/09/20 13:19:17;;;;;;;0.90;0.70;;;28.60;82.60;;;;;;5018207;28;20061;-81
2022/09/20 13:21:52;;;;;;;0.68;0.47;;;28.70;82.60;;;;;;5024964;28;20049;-81
2022/09/20 13:24:24;;;;;;;2.70;0.50;;;28.70;82.50;;;;;;5025666;28;20045;-81
2022/09/20 13:26:55;;;;;;;1.63;0.80;;;28.70;83.20;;;;;;5002568;28;20082;-81
2022/09/20 13:29:31;;;;;;;0.80;0.50;;;28.70;83.00;;;;;;5021810;28;20519;-81
2022/09/20 13:32:17;;;;;;;3.55;0.70;;;28.70;81.30;;;;;;5020587;28;20059;-80
2022/09/20 13:34:46;;;;;;;1.73;0.73;;;28.70;82.30;;;;;;5006255;28;20399;-82
2022/09/20 13:37:22;;;;;;;0.88;0.50;;;28.40;82.30;;;;;;5023559;28;20046;-81
2022/09/20 13:39:54;;;;;;;1.17;0.90;;;28.40;83.80;;;;;;5017384;28;20092;-81
2022/09/20 13:42:22;;;;;;;1.20;0.70;;;28.30;83.60;;;;;;5014931;28;20040;-81
2022/09/20 13:44:50;;;;;;;1.05;0.50;;;28.30;84.00;;;;;;5024921;28;20639;-82
2022/09/20 13:47:24;;;;;;;1.00;0.43;;;28.50;83.70;;;;;;5008100;28;20042;-81
2022/09/20 13:49:59;;;;;;;1.70;0.50;;;28.60;84.10;;;;;;5021278;28;20053;-81
2022/09/20 13:52:29;;;;;;;2.88;0.85;;;28.50;80.80;;;;;;5012425;28;20054;-80
2022/09/20 13:54:59;;;;;;;1.60;0.88;;;28.50;83.10;;;;;;5023886;28;20045;-80
2022/09/20 13:57:29;;;;;;;2.00;0.70;;;28.70;83.30;;;;;;5014452;28;20093;-80
2022/09/20 13:59:57;;;;;;;2.03;0.63;;;28.90;81.60;;;;;;5017168;28;20033;-80
2022/09/20 14:02:31;;;;;;;3.58;1.02;;;29.20;80.50;;;;;;5023643;28;20053;-80
2022/09/20 14:05:02;;;;;;;1.45;0.85;;;29.40;82.00;;;;;;5016417;28;20072;-80
2022/09/20 14:07:31;;;;;;;2.55;0.88;;;29.70;80.30;;;;;;5016824;28;20060;-81